sensor_id;sensor_type;location;lat;lon;timestamp;pressure;altitude;pressure_sealevel;temperature;humidity
9462;BME280;4769;42.660;23.262;2023-08-07T00:00:46;93470.56;;;18.49;81.40
9462;BME280;4769;42.660;23.262;2023-08-07T00:03:14;93475.66;;;18.59;81.89
9462;BME280;4769;42.660;23.262;2023-08-07T00:05:39;93474.81;;;18.50;81.47
9462;BME280;4769;42.660;23.262;2023-08-07T00:08:05;93472.81;;;18.56;81.43
9462;BME280;4769;42.660;23.262;2023-08-07T00:10:31;93485.06;;;18.35;82.67
9462;BME280;4769;42.660;23.262;2023-08-07T00:12:56;93469.47;;;18.15;83.48
9462;BME280;4769;42.660;23.262;2023-08-07T00:15:22;93476.03;;;18.09;84.42
9462;BME280;4769;42.660;23.262;2023-08-07T00:17:49;93461.34;;;18.20;84.17
9462;BME280;4769;42.660;23.262;2023-08-07T00:20:17;93451.09;;;18.13;84.17
9462;BME280;4769;42.660;23.262;2023-08-07T00:22:43;93469.47;;;18.15;85.29
9462;BME280;4769;42.660;23.262;2023-08-07T00:25:08;93469.66;;;18.18;85.22
9462;BME280;4769;42.660;23.262;2023-08-07T00:27:34;93463.16;;;18.11;85.33
9462;BME280;4769;42.660;23.262;2023-08-07T00:30:00;93461.59;;;18.10;85.11
9462;BME280;4769;42.660;23.262;2023-08-07T00:32:25;93455.50;;;18.09;85.18
9462;BME280;4769;42.660;23.262;2023-08-07T00:34:51;93466.94;;;18.10;86.02
9462;BME280;4769;42.660;23.262;2023-08-07T00:37:19;93469.84;;;18.00;87.16
9462;BME280;4769;42.660;23.262;2023-08-07T00:39:45;93476.38;;;17.94;88.20
9462;BME280;4769;42.660;23.262;2023-08-07T00:42:11;93477.53;;;18.01;87.22
9462;BME280;4769;42.660;23.262;2023-08-07T00:44:36;93485.78;;;17.91;87.62
9462;BME280;4769;42.660;23.262;2023-08-07T00:47:02;93468.13;;;18.04;87.09
9462;BME280;4769;42.660;23.262;2023-08-07T00:49:28;93482.06;;;18.14;86.61
9462;BME280;4769;42.660;23.262;2023-08-07T00:51:54;93483.44;;;18.12;86.45
9462;BME280;4769;42.660;23.262;2023-08-07T00:54:22;93490.41;;;18.21;86.42
9462;BME280;4769;42.660;23.262;2023-08-07T00:56:48;93499.06;;;18.40;85.25
9462;BME280;4769;42.660;23.262;2023-08-07T00:59:15;93501.59;;;18.23;86.34
9462;BME280;4769;42.660;23.262;2023-08-07T01:01:41;93506.31;;;18.26;85.81
9462;BME280;4769;42.660;23.262;2023-08-07T01:04:06;93500.09;;;18.31;85.70
9462;BME280;4769;42.660;23.262;2023-08-07T01:06:32;93502.66;;;18.36;86.21
9462;BME280;4769;42.660;23.262;2023-08-07T01:08:58;93508.28;;;18.34;85.63
9462;BME280;4769;42.660;23.262;2023-08-07T01:11:33;93512.03;;;17.98;87.20
9462;BME280;4769;42.660;23.262;2023-08-07T01:14:02;93519.41;;;18.01;88.73
9462;BME280;4769;42.660;23.262;2023-08-07T01:16:34;93524.06;;;18.09;87.68
9462;BME280;4769;42.660;23.262;2023-08-07T01:19:01;93510.31;;;18.02;87.83
9462;BME280;4769;42.660;23.262;2023-08-07T01:21:28;93527.34;;;17.79;89.74
9462;BME280;4769;42.660;23.262;2023-08-07T01:23:56;93530.19;;;17.96;89.33
9462;BME280;4769;42.660;23.262;2023-08-07T01:26:22;93523.59;;;17.93;89.15
9462;BME280;4769;42.660;23.262;2023-08-07T01:28:54;93531.19;;;18.00;88.96
9462;BME280;4769;42.660;23.262;2023-08-07T01:31:24;93526.03;;;18.03;88.89
9462;BME280;4769;42.660;23.262;2023-08-07T01:33:57;93525.50;;;18.15;88.91
9462;BME280;4769;42.660;23.262;2023-08-07T01:36:27;93520.34;;;18.32;87.85
9462;BME280;4769;42.660;23.262;2023-08-07T01:38:56;93527.19;;;18.11;88.61
9462;BME280;4769;42.660;23.262;2023-08-07T01:41:23;93514.19;;;18.09;88.30
9462;BME280;4769;42.660;23.262;2023-08-07T01:43:49;93516.88;;;17.96;89.61
9462;BME280;4769;42.660;23.262;2023-08-07T01:46:16;93522.44;;;17.72;90.54
9462;BME280;4769;42.660;23.262;2023-08-07T01:48:41;93511.66;;;17.64;90.83
9462;BME280;4769;42.660;23.262;2023-08-07T01:51:07;93519.28;;;17.70;91.46
9462;BME280;4769;42.660;23.262;2023-08-07T01:53:33;93517.88;;;17.73;91.41
9462;BME280;4769;42.660;23.262;2023-08-07T01:56:01;93514.75;;;17.71;91.49
9462;BME280;4769;42.660;23.262;2023-08-07T01:58:27;93527.75;;;17.86;90.45
9462;BME280;4769;42.660;23.262;2023-08-07T02:00:52;93527.44;;;17.74;90.54
9462;BME280;4769;42.660;23.262;2023-08-07T02:03:19;93518.59;;;17.51;91.68
9462;BME280;4769;42.660;23.262;2023-08-07T02:05:45;93534.25;;;17.12;93.06
9462;BME280;4769;42.660;23.262;2023-08-07T02:08:11;93536.00;;;17.03;93.46
9462;BME280;4769;42.660;23.262;2023-08-07T02:10:36;93540.16;;;16.77;95.36
9462;BME280;4769;42.660;23.262;2023-08-07T02:13:05;93530.13;;;16.88;95.03
9462;BME280;4769;42.660;23.262;2023-08-07T02:15:30;93540.31;;;16.86;94.38
9462;BME280;4769;42.660;23.262;2023-08-07T02:17:56;93544.25;;;16.88;94.45
9462;BME280;4769;42.660;23.262;2023-08-07T02:20:22;93540.91;;;16.96;93.34
9462;BME280;4769;42.660;23.262;2023-08-07T02:22:47;93533.75;;;16.78;93.50
9462;BME280;4769;42.660;23.262;2023-08-07T02:25:13;93549.03;;;16.73;94.21
9462;BME280;4769;42.660;23.262;2023-08-07T02:27:39;93537.94;;;16.84;93.09
9462;BME280;4769;42.660;23.262;2023-08-07T02:30:08;93562.47;;;16.81;93.35
9462;BME280;4769;42.660;23.262;2023-08-07T02:32:34;93558.44;;;16.97;92.87
9462;BME280;4769;42.660;23.262;2023-08-07T02:35:00;93558.31;;;17.07;91.27
9462;BME280;4769;42.660;23.262;2023-08-07T02:37:25;93546.81;;;16.93;92.05
9462;BME280;4769;42.660;23.262;2023-08-07T02:39:51;93556.38;;;16.94;92.49
9462;BME280;4769;42.660;23.262;2023-08-07T02:42:17;93548.88;;;16.96;92.36
9462;BME280;4769;42.660;23.262;2023-08-07T02:44:42;93539.03;;;17.10;91.40
9462;BME280;4769;42.660;23.262;2023-08-07T02:47:11;93543.22;;;17.30;90.83
9462;BME280;4769;42.660;23.262;2023-08-07T02:49:36;93553.88;;;17.30;91.24
9462;BME280;4769;42.660;23.262;2023-08-07T02:52:02;93550.31;;;17.34;90.90
9462;BME280;4769;42.660;23.262;2023-08-07T02:54:28;93552.31;;;17.29;90.46
9462;BME280;4769;42.660;23.262;2023-08-07T02:56:54;93562.16;;;17.15;91.69
9462;BME280;4769;42.660;23.262;2023-08-07T02:59:19;93559.03;;;17.26;90.96
9462;BME280;4769;42.660;23.262;2023-08-07T03:01:45;93564.19;;;17.04;92.20
9462;BME280;4769;42.660;23.262;2023-08-07T03:04:13;93561.06;;;17.02;92.81
9462;BME280;4769;42.660;23.262;2023-08-07T03:06:39;93564.41;;;17.08;92.80
9462;BME280;4769;42.660;23.262;2023-08-07T03:09:05;93574.91;;;16.86;94.10
9462;BME280;4769;42.660;23.262;2023-08-07T03:11:30;93566.25;;;16.43;97.32
9462;BME280;4769;42.660;23.262;2023-08-07T03:13:56;93567.75;;;16.49;98.54
9462;BME280;4769;42.660;23.262;2023-08-07T03:16:22;93582.16;;;16.48;98.80
9462;BME280;4769;42.660;23.262;2023-08-07T03:18:47;93588.09;;;16.77;97.47
9462;BME280;4769;42.660;23.262;2023-08-07T03:21:15;93576.50;;;16.87;97.27
9462;BME280;4769;42.660;23.262;2023-08-07T03:23:41;93587.34;;;16.90;97.42
9462;BME280;4769;42.660;23.262;2023-08-07T03:26:08;93586.69;;;16.98;97.54
9462;BME280;4769;42.660;23.262;2023-08-07T03:28:34;93584.84;;;17.12;96.73
9462;BME280;4769;42.660;23.262;2023-08-07T03:31:00;93582.63;;;17.33;95.88
9462;BME280;4769;42.660;23.262;2023-08-07T03:33:26;93596.38;;;17.40;95.16
9462;BME280;4769;42.660;23.262;2023-08-07T03:35:52;93600.31;;;17.10;97.35
9462;BME280;4769;42.660;23.262;2023-08-07T03:38:20;93611.34;;;17.04;99.53
9462;BME280;4769;42.660;23.262;2023-08-07T03:40:46;93619.03;;;17.05;99.51
9462;BME280;4769;42.660;23.262;2023-08-07T03:43:12;93619.66;;;17.02;100.00
9462;BME280;4769;42.660;23.262;2023-08-07T03:45:38;93622.06;;;17.31;98.86
9462;BME280;4769;42.660;23.262;2023-08-07T03:48:03;93622.06;;;17.31;98.38
9462;BME280;4769;42.660;23.262;2023-08-07T03:50:29;93618.88;;;17.47;96.59
9462;BME280;4769;42.660;23.262;2023-08-07T03:52:55;93613.69;;;17.24;96.21
9462;BME280;4769;42.660;23.262;2023-08-07T03:55:23;93632.44;;;17.32;95.81
9462;BME280;4769;42.660;23.262;2023-08-07T03:57:48;93625.94;;;17.38;95.14
9462;BME280;4769;42.660;23.262;2023-08-07T04:00:15;93627.06;;;17.51;93.91
9462;BME280;4769;42.660;23.262;2023-08-07T04:02:40;93627.06;;;17.51;93.10
9462;BME280;4769;42.660;23.262;2023-08-07T04:05:06;93642.22;;;17.69;92.41
9462;BME280;4769;42.660;23.262;2023-08-07T04:07:32;93639.06;;;17.80;90.75
9462;BME280;4769;42.660;23.262;2023-08-07T04:10:05;93646.47;;;17.83;91.11
9462;BME280;4769;42.660;23.262;2023-08-07T04:12:34;93643.03;;;17.96;90.29
9462;BME280;4769;42.660;23.262;2023-08-07T04:14:59;93645.41;;;17.98;89.17
9462;BME280;4769;42.660;23.262;2023-08-07T04:17:25;93631.16;;;18.02;89.45
9462;BME280;4769;42.660;23.262;2023-08-07T04:19:50;93633.13;;;17.97;88.32
9462;BME280;4769;42.660;23.262;2023-08-07T04:22:16;93640.25;;;18.15;88.19
9462;BME280;4769;42.660;23.262;2023-08-07T04:24:42;93647.16;;;18.29;86.85
9462;BME280;4769;42.660;23.262;2023-08-07T04:27:07;93639.66;;;18.18;87.49
9462;BME280;4769;42.660;23.262;2023-08-07T04:29:36;93644.19;;;18.31;86.48
9462;BME280;4769;42.660;23.262;2023-08-07T04:32:01;93654.38;;;18.15;87.32
9462;BME280;4769;42.660;23.262;2023-08-07T04:34:27;93646.38;;;18.15;87.48
9462;BME280;4769;42.660;23.262;2023-08-07T04:36:53;93657.94;;;18.24;87.15
9462;BME280;4769;42.660;23.262;2023-08-07T04:39:20;93650.94;;;18.28;87.35
9462;BME280;4769;42.660;23.262;2023-08-07T04:41:45;93650.94;;;18.42;86.43
9462;BME280;4769;42.660;23.262;2023-08-07T04:44:11;93663.19;;;18.29;86.87
9462;BME280;4769;42.660;23.262;2023-08-07T04:46:39;93659.13;;;18.18;87.11
9462;BME280;4769;42.660;23.262;2023-08-07T04:49:05;93660.19;;;18.17;87.70
9462;BME280;4769;42.660;23.262;2023-08-07T04:51:31;93662.56;;;18.32;87.46
9462;BME280;4769;42.660;23.262;2023-08-07T04:53:56;93651.72;;;18.42;85.88
9462;BME280;4769;42.660;23.262;2023-08-07T04:56:22;93655.34;;;18.46;86.36
9462;BME280;4769;42.660;23.262;2023-08-07T04:58:48;93653.22;;;18.35;87.28
9462;BME280;4769;42.660;23.262;2023-08-07T05:01:13;93657.72;;;18.61;86.56
9462;BME280;4769;42.660;23.262;2023-08-07T05:03:42;93659.22;;;18.89;84.63
9462;BME280;4769;42.660;23.262;2023-08-07T05:06:07;93658.53;;;18.84;84.46
9462;BME280;4769;42.660;23.262;2023-08-07T05:08:33;93654.03;;;18.71;85.52
9462;BME280;4769;42.660;23.262;2023-08-07T05:10:59;93652.31;;;18.88;84.95
9462;BME280;4769;42.660;23.262;2023-08-07T05:13:24;93648.56;;;18.76;84.46
9462;BME280;4769;42.660;23.262;2023-08-07T05:15:50;93635.31;;;18.84;83.89
9462;BME280;4769;42.660;23.262;2023-08-07T05:18:16;93644.38;;;19.19;81.56
9462;BME280;4769;42.660;23.262;2023-08-07T05:20:44;93645.78;;;19.16;82.00
9462;BME280;4769;42.660;23.262;2023-08-07T05:23:10;93628.03;;;19.42;81.64
9462;BME280;4769;42.660;23.262;2023-08-07T05:25:35;93636.28;;;19.54;79.93
9462;BME280;4769;42.660;23.262;2023-08-07T05:28:01;93633.38;;;19.42;79.28
9462;BME280;4769;42.660;23.262;2023-08-07T05:30:27;93644.78;;;19.12;81.83
9462;BME280;4769;42.660;23.262;2023-08-07T05:32:52;93660.06;;;19.34;80.60
9462;BME280;4769;42.660;23.262;2023-08-07T05:35:18;93649.19;;;19.30;80.11
9462;BME280;4769;42.660;23.262;2023-08-07T05:37:47;93656.84;;;19.23;79.47
9462;BME280;4769;42.660;23.262;2023-08-07T05:40:12;93643.19;;;19.11;79.45
9462;BME280;4769;42.660;23.262;2023-08-07T05:42:38;93651.22;;;19.11;79.23
9462;BME280;4769;42.660;23.262;2023-08-07T05:45:04;93663.00;;;19.24;79.54
9462;BME280;4769;42.660;23.262;2023-08-07T05:47:32;93654.06;;;19.59;79.04
9462;BME280;4769;42.660;23.262;2023-08-07T05:49:58;93655.66;;;19.90;77.87
9462;BME280;4769;42.660;23.262;2023-08-07T05:52:23;93657.25;;;19.91;76.18
9462;BME280;4769;42.660;23.262;2023-08-07T05:54:51;93658.72;;;19.75;78.16
9462;BME280;4769;42.660;23.262;2023-08-07T05:57:17;93662.59;;;19.61;78.86
9462;BME280;4769;42.660;23.262;2023-08-07T05:59:43;93649.00;;;19.79;77.65
9462;BME280;4769;42.660;23.262;2023-08-07T06:02:09;93651.19;;;19.47;78.59
9462;BME280;4769;42.660;23.262;2023-08-07T06:04:35;93652.22;;;19.37;79.68
9462;BME280;4769;42.660;23.262;2023-08-07T06:07:00;93653.06;;;19.46;80.15
9462;BME280;4769;42.660;23.262;2023-08-07T06:09:26;93664.59;;;19.55;80.02
9462;BME280;4769;42.660;23.262;2023-08-07T06:11:54;93644.66;;;19.61;79.46
9462;BME280;4769;42.660;23.262;2023-08-07T06:14:20;93650.94;;;19.87;78.40
9462;BME280;4769;42.660;23.262;2023-08-07T06:16:46;93642.91;;;20.26;77.60
9462;BME280;4769;42.660;23.262;2023-08-07T06:19:11;93652.50;;;20.27;76.66
9462;BME280;4769;42.660;23.262;2023-08-07T06:21:37;93657.91;;;20.36;76.45
9462;BME280;4769;42.660;23.262;2023-08-07T06:24:03;93635.25;;;20.50;75.21
9462;BME280;4769;42.660;23.262;2023-08-07T06:26:29;93637.00;;;20.55;75.38
9462;BME280;4769;42.660;23.262;2023-08-07T06:28:57;93643.97;;;20.81;71.24
9462;BME280;4769;42.660;23.262;2023-08-07T06:31:23;93628.56;;;20.95;69.61
9462;BME280;4769;42.660;23.262;2023-08-07T06:33:49;93626.00;;;21.24;67.31
9462;BME280;4769;42.660;23.262;2023-08-07T06:36:15;93636.28;;;21.22;67.04
9462;BME280;4769;42.660;23.262;2023-08-07T06:38:40;93636.28;;;21.22;64.96
9462;BME280;4769;42.660;23.262;2023-08-07T06:41:06;93633.44;;;21.10;64.83
9462;BME280;4769;42.660;23.262;2023-08-07T06:43:32;93638.63;;;21.15;61.27
9462;BME280;4769;42.660;23.262;2023-08-07T06:46:00;93633.91;;;21.12;61.65
9462;BME280;4769;42.660;23.262;2023-08-07T06:48:26;93642.25;;;21.28;63.44
9462;BME280;4769;42.660;23.262;2023-08-07T06:50:51;93640.97;;;21.42;62.36
9462;BME280;4769;42.660;23.262;2023-08-07T06:53:17;93651.19;;;21.74;61.54
9462;BME280;4769;42.660;23.262;2023-08-07T06:55:44;93647.25;;;21.72;59.04
9462;BME280;4769;42.660;23.262;2023-08-07T06:58:10;93642.50;;;21.77;59.63
9462;BME280;4769;42.660;23.262;2023-08-07T07:00:36;93639.03;;;21.68;59.23
9462;BME280;4769;42.660;23.262;2023-08-07T07:03:04;93639.66;;;21.74;59.81
9462;BME280;4769;42.660;23.262;2023-08-07T07:05:30;93637.03;;;22.40;58.40
9462;BME280;4769;42.660;23.262;2023-08-07T07:07:57;93643.03;;;22.37;58.33
9462;BME280;4769;42.660;23.262;2023-08-07T07:10:23;93643.28;;;22.61;57.83
9462;BME280;4769;42.660;23.262;2023-08-07T07:12:48;93634.09;;;22.25;58.33
9462;BME280;4769;42.660;23.262;2023-08-07T07:15:14;93633.41;;;22.45;58.77
9462;BME280;4769;42.660;23.262;2023-08-07T07:17:40;93632.25;;;22.54;58.36
9462;BME280;4769;42.660;23.262;2023-08-07T07:20:10;93636.84;;;22.54;57.37
9462;BME280;4769;42.660;23.262;2023-08-07T07:22:35;93642.56;;;22.73;57.77
9462;BME280;4769;42.660;23.262;2023-08-07T07:25:01;93636.19;;;22.57;57.18
9462;BME280;4769;42.660;23.262;2023-08-07T07:27:30;93632.25;;;22.54;56.58
9462;BME280;4769;42.660;23.262;2023-08-07T07:29:56;93615.38;;;22.45;57.10
9462;BME280;4769;42.660;23.262;2023-08-07T07:32:21;93637.41;;;22.59;55.97
9462;BME280;4769;42.660;23.262;2023-08-07T07:34:47;93637.84;;;22.90;55.08
9462;BME280;4769;42.660;23.262;2023-08-07T07:37:15;93635.59;;;23.21;53.75
9462;BME280;4769;42.660;23.262;2023-08-07T07:39:41;93642.53;;;23.22;52.51
9462;BME280;4769;42.660;23.262;2023-08-07T07:42:07;93637.03;;;23.19;53.06
9462;BME280;4769;42.660;23.262;2023-08-07T07:44:33;93630.63;;;23.44;50.49
9462;BME280;4769;42.660;23.262;2023-08-07T07:46:59;93631.47;;;23.56;50.82
9462;BME280;4769;42.660;23.262;2023-08-07T07:49:24;93625.22;;;24.21;50.64
9462;BME280;4769;42.660;23.262;2023-08-07T07:51:50;93629.94;;;24.24;48.54
9462;BME280;4769;42.660;23.262;2023-08-07T07:54:18;93617.50;;;24.44;48.30
9462;BME280;4769;42.660;23.262;2023-08-07T07:56:44;93626.47;;;24.60;47.81
9462;BME280;4769;42.660;23.262;2023-08-07T07:59:10;93612.75;;;24.65;48.52
9462;BME280;4769;42.660;23.262;2023-08-07T08:01:35;93619.72;;;24.42;47.44
9462;BME280;4769;42.660;23.262;2023-08-07T08:04:01;93618.28;;;23.75;49.58
9462;BME280;4769;42.660;23.262;2023-08-07T08:06:27;93624.44;;;24.21;49.52
9462;BME280;4769;42.660;23.262;2023-08-07T08:08:52;93626.47;;;24.36;48.35
9462;BME280;4769;42.660;23.262;2023-08-07T08:11:21;93612.56;;;24.34;49.00
9462;BME280;4769;42.660;23.262;2023-08-07T08:13:46;93611.09;;;24.60;48.30
9462;BME280;4769;42.660;23.262;2023-08-07T08:16:12;93606.72;;;24.68;49.16
9462;BME280;4769;42.660;23.262;2023-08-07T08:18:37;93601.09;;;25.12;47.19
9462;BME280;4769;42.660;23.262;2023-08-07T08:21:03;93611.84;;;24.85;47.37
9462;BME280;4769;42.660;23.262;2023-08-07T08:23:29;93600.53;;;25.46;47.08
9462;BME280;4769;42.660;23.262;2023-08-07T08:25:55;93593.00;;;26.26;45.00
9462;BME280;4769;42.660;23.262;2023-08-07T08:28:23;93596.53;;;26.76;42.14
9462;BME280;4769;42.660;23.262;2023-08-07T08:30:51;93592.63;;;26.58;42.29
9462;BME280;4769;42.660;23.262;2023-08-07T08:33:17;93601.50;;;27.09;42.16
9462;BME280;4769;42.660;23.262;2023-08-07T08:35:42;93600.19;;;27.37;41.28
9462;BME280;4769;42.660;23.262;2023-08-07T08:38:09;93589.53;;;27.86;40.89
9462;BME280;4769;42.660;23.262;2023-08-07T08:40:35;93593.41;;;27.66;39.20
9462;BME280;4769;42.660;23.262;2023-08-07T08:43:04;93589.69;;;27.36;40.14
9462;BME280;4769;42.660;23.262;2023-08-07T08:45:33;93593.25;;;27.59;40.70
9462;BME280;4769;42.660;23.262;2023-08-07T08:48:01;93595.25;;;27.81;39.80
9462;BME280;4769;42.660;23.262;2023-08-07T08:50:28;93589.31;;;27.75;40.01
9462;BME280;4769;42.660;23.262;2023-08-07T08:52:55;93590.88;;;28.18;39.69
9462;BME280;4769;42.660;23.262;2023-08-07T08:55:22;93583.50;;;28.63;38.87
9462;BME280;4769;42.660;23.262;2023-08-07T08:57:48;93580.53;;;28.46;38.02
9462;BME280;4769;42.660;23.262;2023-08-07T09:00:14;93575.91;;;27.41;40.40
9462;BME280;4769;42.660;23.262;2023-08-07T09:02:44;93567.66;;;27.56;39.83
9462;BME280;4769;42.660;23.262;2023-08-07T09:05:09;93583.59;;;27.99;39.17
9462;BME280;4769;42.660;23.262;2023-08-07T09:07:36;93586.38;;;28.03;38.61
9462;BME280;4769;42.660;23.262;2023-08-07T09:10:03;93589.97;;;28.33;38.36
9462;BME280;4769;42.660;23.262;2023-08-07T09:12:32;93583.63;;;28.25;38.04
9462;BME280;4769;42.660;23.262;2023-08-07T09:14:58;93599.03;;;27.76;38.83
9462;BME280;4769;42.660;23.262;2023-08-07T09:17:26;93591.09;;;27.87;38.76
9462;BME280;4769;42.660;23.262;2023-08-07T09:19:55;93571.91;;;27.95;38.43
9462;BME280;4769;42.660;23.262;2023-08-07T09:22:21;93570.28;;;27.91;38.43
9462;BME280;4769;42.660;23.262;2023-08-07T09:24:47;93564.44;;;28.34;37.75
9462;BME280;4769;42.660;23.262;2023-08-07T09:27:13;93562.25;;;28.20;37.74
9462;BME280;4769;42.660;23.262;2023-08-07T09:29:39;93561.84;;;27.77;38.30
9462;BME280;4769;42.660;23.262;2023-08-07T09:32:09;93560.69;;;28.19;37.16
9462;BME280;4769;42.660;23.262;2023-08-07T09:34:35;93559.72;;;28.31;37.64
9462;BME280;4769;42.660;23.262;2023-08-07T09:37:04;93572.59;;;28.60;37.08
9462;BME280;4769;42.660;23.262;2023-08-07T09:39:30;93562.47;;;29.09;36.50
9462;BME280;4769;42.660;23.262;2023-08-07T09:41:55;93547.25;;;29.34;36.05
9462;BME280;4769;42.660;23.262;2023-08-07T09:44:21;93558.44;;;29.58;36.07
9462;BME280;4769;42.660;23.262;2023-08-07T09:46:47;93563.59;;;28.78;36.49
9462;BME280;4769;42.660;23.262;2023-08-07T09:49:13;93565.09;;;28.27;37.08
9462;BME280;4769;42.660;23.262;2023-08-07T09:51:42;93561.66;;;28.30;36.86
9462;BME280;4769;42.660;23.262;2023-08-07T09:54:10;93558.47;;;28.02;37.89
9462;BME280;4769;42.660;23.262;2023-08-07T09:56:36;93551.63;;;29.09;36.18
9462;BME280;4769;42.660;23.262;2023-08-07T09:59:03;93551.91;;;30.03;34.70
9462;BME280;4769;42.660;23.262;2023-08-07T10:01:29;93554.06;;;30.20;34.28
9462;BME280;4769;42.660;23.262;2023-08-07T10:03:55;93546.69;;;29.51;34.45
9462;BME280;4769;42.660;23.262;2023-08-07T10:06:21;93555.97;;;28.87;35.66
9462;BME280;4769;42.660;23.262;2023-08-07T10:08:46;93550.72;;;28.49;36.85
9462;BME280;4769;42.660;23.262;2023-08-07T10:11:15;93541.44;;;29.02;35.94
9462;BME280;4769;42.660;23.262;2023-08-07T10:13:41;93545.59;;;29.26;34.93
9462;BME280;4769;42.660;23.262;2023-08-07T10:16:07;93550.50;;;29.46;35.05
9462;BME280;4769;42.660;23.262;2023-08-07T10:18:33;93552.97;;;28.96;35.41
9462;BME280;4769;42.660;23.262;2023-08-07T10:21:01;93555.09;;;29.09;35.05
9462;BME280;4769;42.660;23.262;2023-08-07T10:23:27;93552.47;;;28.61;35.86
9462;BME280;4769;42.660;23.262;2023-08-07T10:25:53;93558.53;;;28.77;36.21
9462;BME280;4769;42.660;23.262;2023-08-07T10:28:23;93555.06;;;28.80;35.75
9462;BME280;4769;42.660;23.262;2023-08-07T10:30:50;93562.50;;;28.86;36.05
9462;BME280;4769;42.660;23.262;2023-08-07T10:33:17;93547.06;;;28.90;34.67
9462;BME280;4769;42.660;23.262;2023-08-07T10:35:47;93549.78;;;29.86;34.25
9462;BME280;4769;42.660;23.262;2023-08-07T10:38:13;93548.97;;;30.18;33.08
9462;BME280;4769;42.660;23.262;2023-08-07T10:41:00;93552.22;;;29.94;33.69
9462;BME280;4769;42.660;23.262;2023-08-07T10:43:29;93548.84;;;30.51;32.44
9462;BME280;4769;42.660;23.262;2023-08-07T10:46:02;93550.03;;;31.15;31.88
9462;BME280;4769;42.660;23.262;2023-08-07T10:48:28;93540.59;;;31.77;30.22
9462;BME280;4769;42.660;23.262;2023-08-07T10:50:56;93533.25;;;32.09;29.06
9462;BME280;4769;42.660;23.262;2023-08-07T10:53:29;93539.09;;;31.01;31.35
9462;BME280;4769;42.660;23.262;2023-08-07T10:55:54;93517.97;;;30.84;32.03
9462;BME280;4769;42.660;23.262;2023-08-07T10:58:24;93519.59;;;30.95;31.66
9462;BME280;4769;42.660;23.262;2023-08-07T11:01:16;93534.50;;;30.58;30.43
9462;BME280;4769;42.660;23.262;2023-08-07T11:03:42;93525.81;;;30.96;31.32
9462;BME280;4769;42.660;23.262;2023-08-07T11:06:09;93524.44;;;31.26;31.05
9462;BME280;4769;42.660;23.262;2023-08-07T11:08:35;93535.44;;;30.76;30.08
9462;BME280;4769;42.660;23.262;2023-08-07T11:11:04;93511.41;;;30.92;30.43
9462;BME280;4769;42.660;23.262;2023-08-07T11:13:30;93521.13;;;31.78;29.07
9462;BME280;4769;42.660;23.262;2023-08-07T11:15:59;93500.91;;;32.18;28.51
9462;BME280;4769;42.660;23.262;2023-08-07T11:18:25;93510.25;;;32.00;28.54
9462;BME280;4769;42.660;23.262;2023-08-07T11:20:53;93495.88;;;30.92;29.95
9462;BME280;4769;42.660;23.262;2023-08-07T11:23:23;93486.47;;;31.86;29.76
9462;BME280;4769;42.660;23.262;2023-08-07T11:25:48;93483.75;;;32.11;29.33
9462;BME280;4769;42.660;23.262;2023-08-07T11:28:14;93475.16;;;32.82;28.44
9462;BME280;4769;42.660;23.262;2023-08-07T11:30:42;93481.75;;;32.92;28.46
9462;BME280;4769;42.660;23.262;2023-08-07T11:33:11;93474.34;;;32.85;28.38
9462;BME280;4769;42.660;23.262;2023-08-07T11:35:41;93475.97;;;32.41;28.32
9462;BME280;4769;42.660;23.262;2023-08-07T11:38:06;93473.63;;;32.53;28.57
9462;BME280;4769;42.660;23.262;2023-08-07T11:40:32;93469.31;;;32.84;27.93
9462;BME280;4769;42.660;23.262;2023-08-07T11:42:58;93472.84;;;32.46;28.25
9462;BME280;4769;42.660;23.262;2023-08-07T11:45:23;93483.22;;;31.38;30.31
9462;BME280;4769;42.660;23.262;2023-08-07T11:47:49;93486.59;;;31.04;31.18
9462;BME280;4769;42.660;23.262;2023-08-07T11:50:18;93482.56;;;30.26;32.16
9462;BME280;4769;42.660;23.262;2023-08-07T11:52:43;93475.19;;;30.23;32.17
9462;BME280;4769;42.660;23.262;2023-08-07T11:55:09;93479.31;;;29.63;32.90
9462;BME280;4769;42.660;23.262;2023-08-07T11:57:38;93477.31;;;29.57;33.55
9462;BME280;4769;42.660;23.262;2023-08-07T12:00:06;93475.59;;;29.45;34.12
9462;BME280;4769;42.660;23.262;2023-08-07T12:02:35;93474.03;;;29.41;34.36
9462;BME280;4769;42.660;23.262;2023-08-07T12:05:00;93474.47;;;28.28;35.83
9462;BME280;4769;42.660;23.262;2023-08-07T12:07:29;93475.78;;;28.64;36.29
9462;BME280;4769;42.660;23.262;2023-08-07T12:09:55;93474.44;;;29.10;35.71
9462;BME280;4769;42.660;23.262;2023-08-07T12:12:20;93471.31;;;29.08;35.32
9462;BME280;4769;42.660;23.262;2023-08-07T12:14:46;93473.09;;;29.63;34.45
9462;BME280;4769;42.660;23.262;2023-08-07T12:17:12;93475.59;;;30.83;32.73
9462;BME280;4769;42.660;23.262;2023-08-07T12:19:38;93464.59;;;31.54;31.57
9462;BME280;4769;42.660;23.262;2023-08-07T12:22:06;93464.13;;;31.35;31.12
9462;BME280;4769;42.660;23.262;2023-08-07T12:24:35;93467.91;;;31.13;31.82
9462;BME280;4769;42.660;23.262;2023-08-07T12:27:01;93465.66;;;30.00;33.87
9462;BME280;4769;42.660;23.262;2023-08-07T12:29:27;93460.06;;;29.79;34.26
9462;BME280;4769;42.660;23.262;2023-08-07T12:31:52;93466.94;;;29.69;34.47
9462;BME280;4769;42.660;23.262;2023-08-07T12:34:18;93467.84;;;29.47;35.43
9462;BME280;4769;42.660;23.262;2023-08-07T12:36:44;93466.38;;;29.17;35.58
9462;BME280;4769;42.660;23.262;2023-08-07T12:39:09;93478.25;;;29.75;34.73
9462;BME280;4769;42.660;23.262;2023-08-07T12:41:37;93471.13;;;30.57;34.00
9462;BME280;4769;42.660;23.262;2023-08-07T12:44:04;93478.38;;;30.93;32.70
9462;BME280;4769;42.660;23.262;2023-08-07T12:46:29;93468.06;;;30.62;33.23
9462;BME280;4769;42.660;23.262;2023-08-07T12:48:55;93481.13;;;29.92;34.71
9462;BME280;4769;42.660;23.262;2023-08-07T12:51:21;93475.44;;;29.64;36.83
9462;BME280;4769;42.660;23.262;2023-08-07T12:53:46;93490.91;;;29.60;35.53
9462;BME280;4769;42.660;23.262;2023-08-07T12:56:14;93487.81;;;29.25;36.87
9462;BME280;4769;42.660;23.262;2023-08-07T12:58:42;93487.53;;;29.37;36.21
9462;BME280;4769;42.660;23.262;2023-08-07T13:01:08;93478.88;;;30.05;35.72
9462;BME280;4769;42.660;23.262;2023-08-07T13:03:34;93478.84;;;31.20;34.04
9462;BME280;4769;42.660;23.262;2023-08-07T13:06:00;93495.81;;;30.89;33.63